createdAt,value
2022-09-05T04:08:08.536Z,99167.00
2022-09-05T04:08:34.269Z,99171.13
2022-09-05T04:13:00.234Z,99172.13
2022-09-05T04:17:36.576Z,99171.47
2022-09-05T04:21:57.356Z,99166.59
2022-09-05T04:26:36.765Z,99169.44
2022-09-05T04:31:11.778Z,99167.28
2022-09-05T04:35:33.124Z,99176.50
2022-09-05T04:39:44.741Z,99177.75
2022-09-05T04:44:06.294Z,99176.16
2022-09-05T04:48:24.279Z,99169.09
2022-09-05T04:52:49.470Z,99173.34
2022-09-05T04:57:13.798Z,99172.88
2022-09-05T05:06:01.308Z,99181.28
2022-09-05T05:06:47.589Z,99188.31
2022-09-05T05:17:42.993Z,99194.53
2022-09-05T05:18:12.951Z,99191.91
2022-09-05T05:20:42.257Z,99192.72
2022-09-05T05:24:56.832Z,99184.44
2022-09-05T05:29:19.373Z,99196.38
2022-09-05T05:33:35.080Z,99205.75
2022-09-05T05:37:55.048Z,99201.13
2022-09-05T05:42:20.920Z,99201.78
2022-09-05T05:46:37.821Z,99216.72
2022-09-05T05:51:03.207Z,99211.47
2022-09-05T05:55:53.120Z,99214.09
2022-09-05T06:00:05.180Z,99214.03
2022-09-05T06:05:03.959Z,99225.00
2022-09-05T06:14:13.691Z,99226.97
2022-09-05T06:15:08.947Z,99225.47
2022-09-05T06:19:47.013Z,99229.34
2022-09-05T06:24:14.732Z,99234.53
2022-09-05T06:28:43.205Z,99233.50
2022-09-05T06:33:05.953Z,99241.50
2022-09-05T06:37:45.139Z,99239.78
2022-09-05T06:42:43.403Z,99231.06
2022-09-05T06:47:21.982Z,99225.50
2022-09-05T06:51:45.779Z,99227.53
2022-09-05T06:56:26.377Z,99221.41
2022-09-05T07:00:53.072Z,99227.84
2022-09-05T07:05:39.763Z,99227.78
2022-09-05T07:10:36.946Z,99225.31
2022-09-05T07:15:17.293Z,99233.94
2022-09-05T07:19:35.299Z,99241.28
2022-09-05T07:24:09.886Z,99240.38
2022-09-05T07:28:29.866Z,99239.97
2022-09-05T07:32:45.314Z,99247.25
2022-09-05T07:37:14.158Z,99247.28
2022-09-05T07:41:30.189Z,99245.59
2022-09-05T07:46:11.659Z,99234.06
2022-09-05T07:52:54.475Z,99240.06
2022-09-05T07:57:06.157Z,99242.38
2022-09-05T07:59:34.091Z,99248.97
2022-09-05T08:03:45.658Z,99238.44
2022-09-05T08:08:01.676Z,99248.25
2022-09-05T08:12:18.217Z,99252.44
2022-09-05T08:16:42.254Z,99246.81
2022-09-05T08:21:31.847Z,99243.91
2022-09-05T08:25:57.966Z,99253.97
2022-09-05T08:30:25.575Z,99252.13
2022-09-05T08:34:46.397Z,99258.19
2022-09-05T08:39:03.427Z,99252.69
2022-09-05T08:46:12.630Z,99245.09
2022-09-05T08:48:39.840Z,99259.94
2022-09-05T08:53:45.262Z,99257.34
2022-09-05T08:57:59.274Z,99246.88
2022-09-05T09:02:46.889Z,99238.16
2022-09-05T09:07:48.075Z,99239.47
2022-09-05T09:11:59.614Z,99242.84
2022-09-05T09:16:27.892Z,99230.66
2022-09-05T09:20:56.721Z,99234.94
2022-09-05T09:25:15.557Z,99222.09
2022-09-05T09:29:34.294Z,99213.78
2022-09-05T09:34:07.619Z,99207.97
2022-09-05T09:38:44.865Z,99203.34
2022-09-05T09:43:27.333Z,99182.56
2022-09-05T09:47:56.130Z,99182.84
2022-09-05T09:52:33.143Z,99171.69
2022-09-05T09:57:12.026Z,99176.16
2022-09-05T10:01:37.315Z,99172.03
2022-09-05T10:10:53.991Z,99176.94
2022-09-05T10:16:25.637Z,99160.69
2022-09-05T10:21:25.654Z,99159.88
2022-09-05T10:25:46.409Z,99152.69
2022-09-05T10:30:11.249Z,99148.75
2022-09-05T10:35:13.337Z,99140.91
2022-09-05T10:39:15.163Z,99143.94
2022-09-05T10:43:31.069Z,99145.44
2022-09-05T10:47:55.617Z,99126.06
2022-09-05T10:52:59.166Z,99132.91
2022-09-05T10:57:16.737Z,99130.97
2022-09-05T11:02:28.147Z,99132.41
2022-09-05T11:06:11.242Z,99126.38
2022-09-05T11:10:41.178Z,99120.06
2022-09-05T11:14:58.515Z,99111.81
2022-09-05T11:19:12.958Z,99103.56
2022-09-05T11:23:35.600Z,99105.72
2022-09-05T11:27:57.712Z,99103.06
2022-09-05T11:39:58.407Z,99088.59
2022-09-05T11:40:05.247Z,99091.31
2022-09-05T11:42:40.805Z,99083.88
2022-09-05T11:47:28.699Z,99084.69
2022-09-05T11:52:07.593Z,99074.78
2022-09-05T11:56:34.176Z,99074.25
2022-09-05T12:01:36.845Z,99067.81
2022-09-05T12:05:58.793Z,99058.97
2022-09-05T12:10:47.581Z,99057.56
2022-09-05T12:15:22.733Z,99052.47
2022-09-05T12:19:59.201Z,99051.66
2022-09-05T12:25:26.081Z,99043.63
2022-09-05T12:29:29.134Z,99046.25
2022-09-05T12:36:07.821Z,99038.16
2022-09-05T12:41:11.261Z,99035.66
2022-09-05T12:44:39.204Z,99035.94
2022-09-05T12:47:57.903Z,99029.00
2022-09-05T12:52:20.066Z,99036.56
2022-09-05T12:59:55.251Z,99033.03
2022-09-05T13:03:12.782Z,99029.31
2022-09-05T13:06:24.959Z,99025.81
2022-09-05T13:13:24.186Z,99016.63
2022-09-05T13:15:23.954Z,99006.97
2022-09-05T13:19:50.954Z,99013.63
2022-09-05T13:24:12.064Z,99012.78
2022-09-05T13:28:26.609Z,99011.69
2022-09-05T13:38:01.425Z,99003.31
2022-09-05T13:38:19.875Z,99004.56
2022-09-05T13:42:12.381Z,98995.88
2022-09-05T13:46:48.154Z,98988.34
2022-09-05T13:51:15.798Z,98977.31
2022-09-05T13:56:03.059Z,98985.75
2022-09-05T14:00:38.155Z,98964.47
2022-09-05T14:05:08.353Z,98971.41
2022-09-05T14:09:41.205Z,98967.78
2022-09-05T14:14:11.119Z,98961.50
2022-09-05T14:19:05.245Z,98956.81
2022-09-05T14:23:18.939Z,98952.88
2022-09-05T14:27:32.946Z,98958.53
2022-09-05T14:37:44.898Z,98953.97
2022-09-05T14:37:52.712Z,98949.06
2022-09-05T14:42:09.276Z,98930.72
2022-09-05T14:46:49.772Z,98928.28
2022-09-05T14:51:25.349Z,98926.66
2022-09-05T14:55:39.617Z,98924.75
2022-09-05T15:02:52.290Z,98918.31
2022-09-05T15:04:44.676Z,98916.03
2022-09-05T15:11:24.142Z,98903.47
2022-09-05T15:13:37.091Z,98904.59
2022-09-05T15:18:12.071Z,98899.75
2022-09-05T15:22:35.389Z,98894.81
2022-09-05T15:26:51.958Z,98896.81
2022-09-05T15:31:08.953Z,98894.03
2022-09-05T15:35:39.392Z,98886.50
2022-09-05T15:40:07.426Z,98889.75
2022-09-05T15:44:43.341Z,98886.50
2022-09-05T15:49:11.394Z,98887.03
2022-09-05T15:53:30.749Z,98889.75
2022-09-05T15:57:50.576Z,98878.47
2022-09-05T16:02:09.517Z,98883.59
2022-09-05T16:10:28.465Z,98880.22
2022-09-05T16:12:09.104Z,98872.47
2022-09-05T16:23:12.707Z,98877.72
2022-09-05T16:23:23.590Z,98882.00
2022-09-05T16:25:25.555Z,98868.91
2022-09-05T16:29:41.636Z,98872.25
2022-09-05T16:33:53.237Z,98866.09
2022-09-05T16:38:14.348Z,98861.41
2022-09-05T16:42:46.862Z,98858.47
2022-09-05T16:47:39.141Z,98850.72
2022-09-05T16:51:56.383Z,98842.16
2022-09-05T16:56:19.085Z,98845.13
2022-09-05T17:00:46.036Z,98848.06
2022-09-05T17:05:11.092Z,98839.25
2022-09-05T17:09:37.264Z,98837.94
2022-09-05T17:13:54.520Z,98833.16
2022-09-05T17:18:21.851Z,98835.56
2022-09-05T17:27:53.887Z,98822.97
2022-09-05T17:29:34.291Z,98828.38
2022-09-05T17:31:59.658Z,98832.66
2022-09-05T17:36:42.420Z,98842.84
2022-09-05T17:41:44.554Z,98840.59
2022-09-05T17:45:59.509Z,98852.56
2022-09-05T17:50:13.627Z,98851.84
2022-09-05T17:54:28.942Z,98869.69
2022-09-05T17:59:01.415Z,98872.16
2022-09-05T18:03:38.591Z,98877.56
2022-09-05T18:07:57.888Z,98882.94
2022-09-05T18:12:37.991Z,98883.28
2022-09-05T18:17:36.752Z,98892.09
2022-09-05T18:21:48.412Z,98879.53
2022-09-05T18:26:15.936Z,98880.41
2022-09-05T18:30:33.037Z,98873.81
2022-09-05T18:34:46.236Z,98878.03
2022-09-05T18:39:26.055Z,98870.31
2022-09-05T18:44:12.386Z,98864.34
2022-09-05T18:48:35.922Z,98869.34
2022-09-05T18:52:50.538Z,98875.31
2022-09-05T18:57:28.884Z,98870.28
2022-09-05T19:01:43.675Z,98878.81
2022-09-05T19:06:34.668Z,98882.59
2022-09-05T19:10:34.456Z,98870.25
2022-09-05T19:14:53.307Z,98882.44
2022-09-05T19:19:24.818Z,98876.81
2022-09-05T19:23:54.774Z,98882.84
2022-09-05T19:33:01.855Z,98887.28
2022-09-05T19:36:53.901Z,98885.78
2022-09-05T19:37:35.836Z,98882.34
2022-09-05T19:47:30.413Z,98876.00
2022-09-05T19:47:55.753Z,98883.50
2022-09-05T19:51:16.251Z,98877.28
2022-09-05T19:55:35.324Z,98876.59
2022-09-05T19:59:53.321Z,98865.94
2022-09-05T20:04:06.945Z,98864.22
2022-09-05T20:08:33.400Z,98868.50
2022-09-05T20:12:44.939Z,98866.63
2022-09-05T20:17:00.141Z,98869.06
2022-09-05T20:21:28.307Z,98862.47
2022-09-05T20:25:42.685Z,98858.88
2022-09-05T20:30:20.782Z,98863.09
2022-09-05T20:40:47.091Z,98873.00
2022-09-05T20:43:27.333Z,98871.00
2022-09-05T20:45:11.857Z,98865.81
2022-09-05T20:54:06.557Z,98871.34
2022-09-05T20:54:39.374Z,98867.31
2022-09-05T20:59:06.801Z,98873.19
2022-09-05T21:03:27.246Z,98871.66
2022-09-05T21:07:39.937Z,98867.25
2022-09-05T21:12:28.943Z,98876.88
2022-09-05T21:16:47.624Z,98875.56
2022-09-05T21:23:25.847Z,98880.50
2022-09-05T21:26:24.876Z,98875.66
